createdAt,value
2023-06-11T00:00:21.822Z,68.90
2023-06-11T00:02:58.399Z,69.42
2023-06-11T00:05:26.411Z,69.23
2023-06-11T00:08:05.937Z,69.27
2023-06-11T00:10:35.249Z,69.16
2023-06-11T00:13:02.173Z,69.29
2023-06-11T00:15:29.065Z,69.28
2023-06-11T00:18:03.483Z,69.50
2023-06-11T00:20:36.031Z,69.38
2023-06-11T00:23:05.342Z,69.51
2023-06-11T00:25:33.774Z,68.87
2023-06-11T00:28:00.923Z,69.34
2023-06-11T00:30:27.812Z,69.34
2023-06-11T00:32:56.865Z,69.67
2023-06-11T00:35:25.978Z,69.43
2023-06-11T00:37:52.892Z,69.68
2023-06-11T00:40:26.870Z,69.62
2023-06-11T00:42:53.717Z,69.58
2023-06-11T00:45:23.699Z,69.92
2023-06-11T00:47:50.837Z,70.47
2023-06-11T00:50:21.277Z,70.29
2023-06-11T00:52:48.283Z,70.29
2023-06-11T00:55:17.783Z,70.40
2023-06-11T00:57:44.708Z,70.40
2023-06-11T01:00:14.625Z,70.25
2023-06-11T01:02:51.335Z,70.40
2023-06-11T01:05:24.791Z,70.24
2023-06-11T01:07:56.746Z,70.38
2023-06-11T01:10:33.290Z,70.68
2023-06-11T01:13:00.345Z,70.55
2023-06-11T01:15:29.695Z,70.59
2023-06-11T01:17:56.438Z,70.69
2023-06-11T01:20:36.661Z,70.66
2023-06-11T01:23:35.170Z,70.92
2023-06-11T01:26:17.774Z,71.23
2023-06-11T01:28:50.758Z,71.01
2023-06-11T01:31:23.017Z,70.99
2023-06-11T01:33:52.682Z,71.26
2023-06-11T01:36:31.183Z,71.08
2023-06-11T01:39:02.753Z,71.20
2023-06-11T01:41:55.534Z,71.09
2023-06-11T01:44:27.958Z,71.23
2023-06-11T01:46:55.213Z,71.29
2023-06-11T01:49:23.017Z,71.32
2023-06-11T01:51:54.346Z,71.26
2023-06-11T01:54:21.254Z,71.20
2023-06-11T01:56:50.605Z,71.56
2023-06-11T01:59:22.613Z,71.79
2023-06-11T02:01:54.551Z,71.59
2023-06-11T02:04:27.051Z,72.02
2023-06-11T02:06:58.820Z,71.80
2023-06-11T02:09:25.713Z,72.10
2023-06-11T02:11:52.602Z,71.92
2023-06-11T02:14:20.571Z,72.15
2023-06-11T02:16:52.061Z,72.31
2023-06-11T02:19:21.746Z,72.27
2023-06-11T02:21:53.361Z,72.61
2023-06-11T02:24:20.310Z,73.01
2023-06-11T02:26:51.764Z,72.78
2023-06-11T02:29:21.300Z,72.91
2023-06-11T02:31:48.429Z,73.17
2023-06-11T02:34:22.809Z,73.59
2023-06-11T02:36:51.898Z,73.52
2023-06-11T02:39:23.975Z,73.64
2023-06-11T02:41:55.274Z,73.49
2023-06-11T02:44:22.898Z,73.56
2023-06-11T02:46:49.785Z,73.34
2023-06-11T02:49:16.806Z,73.34
2023-06-11T02:51:46.155Z,73.46
2023-06-11T02:54:13.055Z,73.46
2023-06-11T02:56:42.105Z,73.18
2023-06-11T02:59:08.957Z,73.15
2023-06-11T03:01:36.484Z,72.97
2023-06-11T03:04:03.424Z,73.19
2023-06-11T03:06:36.157Z,73.38
2023-06-11T03:09:05.768Z,73.41
2023-06-11T03:11:35.105Z,73.39
2023-06-11T03:14:01.919Z,73.21
2023-06-11T03:16:34.566Z,73.44
2023-06-11T03:19:04.493Z,73.44
2023-06-11T03:21:33.666Z,73.18
2023-06-11T03:24:05.678Z,73.47
2023-06-11T03:26:39.765Z,73.43
2023-06-11T03:29:09.165Z,73.58
2023-06-11T03:31:46.551Z,73.78
2023-06-11T03:34:18.460Z,73.96
2023-06-11T03:36:47.968Z,74.08
2023-06-11T03:39:18.226Z,73.81
2023-06-11T03:41:47.664Z,74.18
2023-06-11T03:44:17.987Z,74.26
2023-06-11T03:46:49.640Z,74.49
2023-06-11T03:49:19.287Z,74.55
2023-06-11T03:51:46.505Z,74.67
2023-06-11T03:54:15.682Z,74.68
2023-06-11T03:56:45.311Z,74.78
2023-06-11T03:59:15.289Z,74.59
2023-06-11T04:01:44.763Z,74.86
2023-06-11T04:04:12.277Z,74.78
2023-06-11T04:06:41.674Z,75.27
2023-06-11T04:09:13.832Z,75.22
2023-06-11T04:11:45.507Z,75.20
2023-06-11T04:14:13.887Z,75.44
2023-06-11T04:16:40.945Z,75.62
2023-06-11T04:19:10.172Z,75.36
2023-06-11T04:21:42.880Z,75.81
2023-06-11T04:24:17.250Z,75.67
2023-06-11T04:26:48.035Z,75.65
2023-06-11T04:29:21.305Z,76.05
2023-06-11T04:31:56.346Z,76.20
2023-06-11T04:34:30.494Z,76.26
2023-06-11T04:37:06.566Z,76.31
2023-06-11T04:39:38.517Z,76.15
2023-06-11T04:42:07.653Z,76.43
2023-06-11T04:44:37.768Z,76.37
2023-06-11T04:47:08.058Z,76.28
2023-06-11T04:49:38.673Z,76.62
2023-06-11T04:52:10.433Z,76.44
2023-06-11T04:54:37.458Z,76.54
2023-06-11T04:57:06.779Z,76.76
2023-06-11T04:59:33.672Z,76.38
2023-06-11T05:02:02.984Z,76.22
2023-06-11T05:04:29.875Z,76.43
2023-06-11T05:07:02.233Z,76.77
2023-06-11T05:09:30.338Z,76.60
2023-06-11T05:11:57.298Z,76.69
2023-06-11T05:14:26.696Z,76.87
2023-06-11T05:16:56.264Z,76.46
2023-06-11T05:19:25.682Z,76.31
2023-06-11T05:21:55.789Z,76.20
2023-06-11T05:24:30.741Z,76.03
2023-06-11T05:27:05.743Z,76.13
2023-06-11T05:29:42.143Z,76.00
2023-06-11T05:32:12.151Z,75.89
2023-06-11T05:34:45.195Z,75.62
2023-06-11T05:37:17.701Z,75.59
2023-06-11T05:39:52.216Z,74.90
2023-06-11T05:42:24.780Z,75.46
2023-06-11T05:44:56.611Z,75.08
2023-06-11T05:47:23.488Z,75.03
2023-06-11T05:49:54.879Z,74.84
2023-06-11T05:52:26.911Z,74.59
2023-06-11T05:54:57.627Z,74.49
2023-06-11T05:57:25.841Z,74.12
2023-06-11T05:59:58.628Z,74.33
2023-06-11T06:02:26.143Z,74.74
2023-06-11T06:04:57.733Z,74.43
2023-06-11T06:07:30.226Z,73.94
2023-06-11T06:10:02.927Z,73.58
2023-06-11T06:12:34.870Z,73.55
2023-06-11T06:15:04.965Z,73.36
2023-06-11T06:17:31.913Z,73.21
2023-06-11T06:20:00.986Z,73.26
2023-06-11T06:22:33.248Z,72.54
2023-06-11T06:25:05.025Z,72.59
2023-06-11T06:27:32.157Z,72.87
2023-06-11T06:30:05.000Z,72.59
2023-06-11T06:32:40.337Z,72.33
2023-06-11T06:35:10.950Z,71.57
2023-06-11T06:37:40.447Z,71.22
2023-06-11T06:40:14.810Z,70.79
2023-06-11T06:42:44.099Z,70.62
2023-06-11T06:45:16.229Z,70.74
2023-06-11T06:47:46.696Z,70.57
2023-06-11T06:50:18.454Z,70.09
2023-06-11T06:52:50.364Z,70.25
2023-06-11T06:55:27.068Z,70.34
2023-06-11T06:58:05.329Z,69.77
2023-06-11T07:00:32.866Z,69.78
2023-06-11T07:03:01.988Z,69.89
2023-06-11T07:05:28.999Z,69.75
2023-06-11T07:07:57.962Z,69.43
2023-06-11T07:10:25.340Z,69.26
2023-06-11T07:12:58.642Z,69.24
2023-06-11T07:15:32.301Z,69.23
2023-06-11T07:18:01.481Z,68.49
2023-06-11T07:20:28.538Z,68.32
2023-06-11T07:23:03.775Z,67.94
2023-06-11T07:25:35.750Z,68.32
2023-06-11T07:28:05.627Z,67.84
2023-06-11T07:30:41.750Z,67.50
2023-06-11T07:33:12.178Z,66.94
2023-06-11T07:35:41.693Z,66.52
2023-06-11T07:38:10.721Z,66.92
2023-06-11T07:40:39.837Z,66.74
2023-06-11T07:43:09.303Z,66.46
2023-06-11T07:45:37.313Z,66.28
2023-06-11T07:48:07.222Z,66.12
2023-06-11T07:50:34.156Z,66.34
2023-06-11T07:53:01.434Z,65.83
2023-06-11T07:55:34.745Z,65.47
2023-06-11T07:58:09.504Z,65.33
2023-06-11T08:00:43.919Z,64.85
2023-06-11T08:03:16.110Z,64.71
2023-06-11T08:05:50.261Z,64.90
2023-06-11T08:08:17.109Z,64.46
2023-06-11T08:10:46.924Z,64.19
2023-06-11T08:13:16.338Z,63.78
2023-06-11T08:15:45.743Z,63.78
2023-06-11T08:18:12.575Z,63.43
2023-06-11T08:20:41.860Z,62.72
2023-06-11T08:23:11.038Z,63.02
2023-06-11T08:25:38.076Z,62.71
2023-06-11T08:28:05.167Z,62.76
2023-06-11T08:30:32.019Z,62.97
2023-06-11T08:33:03.906Z,62.40
2023-06-11T08:35:33.277Z,62.47
2023-06-11T08:38:02.624Z,62.30
2023-06-11T08:40:41.608Z,61.46
2023-06-11T08:43:13.090Z,61.12
2023-06-11T08:45:39.941Z,60.76
2023-06-11T08:48:12.594Z,60.53
2023-06-11T08:50:39.508Z,59.99
2023-06-11T08:53:14.931Z,60.70
2023-06-11T08:55:42.479Z,60.18
2023-06-11T08:58:16.831Z,59.67
2023-06-11T09:00:46.599Z,59.24
2023-06-11T09:03:17.741Z,58.83
2023-06-11T09:05:54.441Z,58.34
2023-06-11T09:08:26.047Z,58.68
2023-06-11T09:10:57.951Z,58.95
2023-06-11T09:13:28.834Z,58.85
2023-06-11T09:15:57.962Z,58.74
2023-06-11T09:18:31.190Z,58.31
2023-06-11T09:21:05.880Z,58.27
2023-06-11T09:23:41.196Z,57.43
2023-06-11T09:26:10.456Z,57.00
2023-06-11T09:28:44.659Z,57.45
2023-06-11T09:31:13.843Z,57.22
2023-06-11T09:33:40.909Z,56.42
2023-06-11T09:36:10.134Z,56.18
2023-06-11T09:38:41.785Z,55.78
2023-06-11T09:41:08.823Z,55.64
2023-06-11T09:43:37.918Z,55.83
2023-06-11T09:46:05.325Z,54.76
2023-06-11T09:48:32.613Z,55.18
2023-06-11T09:51:05.881Z,54.30
2023-06-11T09:53:39.318Z,54.25
2023-06-11T09:56:12.257Z,55.36
2023-06-11T09:58:43.741Z,54.73
2023-06-11T10:01:13.147Z,54.20
2023-06-11T10:03:42.419Z,53.48
2023-06-11T10:06:22.164Z,53.38
2023-06-11T10:08:52.398Z,53.33
2023-06-11T10:11:27.045Z,53.11
2023-06-11T10:14:01.538Z,52.50
2023-06-11T10:16:32.862Z,52.54
2023-06-11T10:19:12.047Z,51.99
2023-06-11T10:21:44.751Z,51.65
2023-06-11T10:24:26.193Z,50.82
2023-06-11T10:27:12.014Z,51.16
2023-06-11T10:29:43.014Z,52.25
2023-06-11T10:32:23.635Z,51.35
2023-06-11T10:35:03.134Z,48.58
2023-06-11T10:37:29.898Z,49.67
2023-06-11T10:39:59.869Z,49.83
2023-06-11T10:42:35.230Z,48.77
2023-06-11T10:45:04.339Z,49.79
2023-06-11T10:47:44.002Z,49.53
2023-06-11T10:50:16.053Z,49.07
2023-06-11T10:52:57.048Z,48.89
2023-06-11T10:55:30.969Z,49.25
2023-06-11T10:58:01.682Z,49.46
2023-06-11T11:00:38.037Z,48.85
2023-06-11T11:03:07.628Z,48.89
2023-06-11T11:05:44.702Z,48.78
2023-06-11T11:08:19.921Z,49.23
2023-06-11T11:10:55.618Z,48.61
2023-06-11T11:13:25.220Z,48.30
2023-06-11T11:15:56.748Z,47.94
2023-06-11T11:18:26.815Z,48.44
2023-06-11T11:20:57.412Z,47.34
2023-06-11T11:23:28.897Z,47.50
2023-06-11T11:25:57.797Z,47.51
2023-06-11T11:28:30.930Z,47.17
2023-06-11T11:30:58.663Z,46.94
2023-06-11T11:33:31.989Z,46.47
2023-06-11T11:36:06.204Z,46.72
2023-06-11T11:38:37.994Z,45.42
2023-06-11T11:41:17.689Z,45.90
2023-06-11T11:43:47.589Z,45.63
2023-06-11T11:46:24.966Z,44.89
2023-06-11T11:48:57.197Z,44.65
2023-06-11T11:51:30.660Z,45.27
2023-06-11T11:54:03.474Z,45.39
2023-06-11T11:56:37.493Z,44.51
2023-06-11T11:59:28.218Z,44.22
2023-06-11T12:02:03.793Z,44.43
2023-06-11T12:04:39.279Z,43.70
2023-06-11T12:07:12.864Z,43.45
2023-06-11T12:09:43.419Z,43.54
2023-06-11T12:12:14.960Z,44.06
2023-06-11T12:14:46.812Z,43.17
2023-06-11T12:17:16.172Z,42.22
2023-06-11T12:19:43.037Z,42.96
2023-06-11T12:22:09.955Z,42.82
2023-06-11T12:24:37.796Z,42.82
2023-06-11T12:27:13.126Z,43.07
2023-06-11T12:29:42.435Z,42.75
2023-06-11T12:32:24.531Z,41.58
2023-06-11T12:34:53.794Z,42.24
2023-06-11T12:37:26.133Z,42.43
2023-06-11T12:39:57.727Z,41.41
2023-06-11T12:42:28.840Z,41.61
2023-06-11T12:44:59.541Z,41.00
2023-06-11T12:47:29.703Z,40.41
2023-06-11T12:50:03.784Z,40.52
2023-06-11T12:52:33.181Z,39.78
2023-06-11T12:55:02.481Z,39.69
2023-06-11T12:57:31.566Z,39.64
2023-06-11T12:59:58.448Z,39.35
2023-06-11T13:02:27.601Z,39.15
2023-06-11T13:05:01.988Z,37.73
2023-06-11T13:07:31.734Z,37.92
2023-06-11T13:09:58.662Z,38.69
2023-06-11T13:12:28.671Z,37.77
2023-06-11T13:14:58.110Z,37.62
2023-06-11T13:17:32.453Z,38.05
2023-06-11T13:19:59.318Z,38.45
2023-06-11T13:22:26.184Z,37.59
2023-06-11T13:24:56.339Z,37.16
2023-06-11T13:27:23.460Z,37.65
2023-06-11T13:29:53.085Z,37.89
2023-06-11T13:32:20.214Z,36.78
2023-06-11T13:34:54.023Z,36.79
2023-06-11T13:37:21.144Z,36.86
2023-06-11T13:39:48.098Z,37.04
2023-06-11T13:42:17.367Z,36.31
2023-06-11T13:44:46.847Z,36.78
2023-06-11T13:47:13.929Z,37.09
2023-06-11T13:49:45.679Z,36.49
2023-06-11T13:52:17.103Z,36.66
2023-06-11T13:54:48.620Z,36.66
2023-06-11T13:57:22.675Z,35.42
2023-06-11T13:59:55.626Z,35.25
2023-06-11T14:02:22.606Z,34.88
2023-06-11T14:04:51.702Z,34.97
2023-06-11T14:07:21.098Z,34.84
2023-06-11T14:09:50.762Z,34.43
2023-06-11T14:12:17.703Z,35.17
2023-06-11T14:14:47.020Z,35.29
2023-06-11T14:17:19.760Z,35.47
2023-06-11T14:19:49.076Z,35.36
2023-06-11T14:22:17.521Z,35.47
2023-06-11T14:24:49.197Z,34.40
2023-06-11T14:27:18.483Z,34.34
2023-06-11T14:29:49.831Z,34.48
2023-06-11T14:32:21.278Z,34.91
2023-06-11T14:34:53.158Z,34.41
2023-06-11T14:37:22.307Z,34.59
2023-06-11T14:39:55.102Z,34.56
2023-06-11T14:42:26.928Z,34.76
2023-06-11T14:44:53.992Z,35.38
2023-06-11T14:47:25.858Z,35.22
2023-06-11T14:49:52.992Z,35.08
2023-06-11T14:52:23.316Z,35.44
2023-06-11T14:54:50.266Z,35.79
2023-06-11T14:57:26.245Z,36.03
2023-06-11T14:59:56.211Z,36.35
2023-06-11T15:02:23.141Z,36.68
2023-06-11T15:04:54.727Z,36.70
2023-06-11T15:07:33.889Z,36.96
2023-06-11T15:10:05.669Z,37.25
2023-06-11T15:12:35.817Z,37.45
2023-06-11T15:15:07.152Z,37.25
2023-06-11T15:17:37.511Z,37.09
2023-06-11T15:20:10.349Z,37.79
2023-06-11T15:22:42.049Z,37.15
2023-06-11T15:25:16.142Z,36.92
2023-06-11T15:27:51.354Z,37.33
2023-06-11T15:30:19.177Z,37.26
2023-06-11T15:32:46.102Z,38.06
2023-06-11T15:35:20.420Z,36.97
2023-06-11T15:37:47.311Z,36.66
2023-06-11T15:40:21.232Z,36.65
2023-06-11T15:42:50.694Z,36.60
2023-06-11T15:45:17.614Z,37.15
2023-06-11T15:47:49.191Z,37.17
2023-06-11T15:50:21.202Z,36.82
2023-06-11T15:52:51.446Z,37.31
2023-06-11T15:55:23.183Z,36.92
2023-06-11T15:57:52.539Z,37.12
2023-06-11T16:00:21.887Z,37.88
2023-06-11T16:02:48.776Z,38.25
2023-06-11T16:05:18.130Z,38.51
2023-06-11T16:07:49.371Z,38.18
2023-06-11T16:10:16.545Z,38.53
2023-06-11T16:12:45.924Z,38.79
2023-06-11T16:15:15.048Z,38.25
2023-06-11T16:17:48.124Z,38.11
2023-06-11T16:20:17.496Z,37.09
2023-06-11T16:22:46.768Z,37.27
2023-06-11T16:25:20.705Z,36.73
2023-06-11T16:27:48.782Z,36.29
2023-06-11T16:30:18.991Z,36.52
2023-06-11T16:32:48.364Z,37.20
2023-06-11T16:35:18.666Z,37.86
2023-06-11T16:37:50.544Z,38.47
2023-06-11T16:40:22.376Z,38.41
2023-06-11T16:42:53.037Z,38.07
2023-06-11T16:45:19.961Z,38.13
2023-06-11T16:47:51.608Z,37.33
2023-06-11T16:50:25.733Z,37.83
2023-06-11T16:52:55.190Z,37.94
2023-06-11T16:55:22.873Z,37.88
2023-06-11T16:57:50.315Z,37.74
2023-06-11T17:00:23.239Z,37.99
2023-06-11T17:02:56.161Z,38.37
2023-06-11T17:05:30.509Z,38.37
2023-06-11T17:08:02.564Z,38.70
2023-06-11T17:10:35.619Z,38.91
2023-06-11T17:13:02.832Z,38.79
2023-06-11T17:15:33.444Z,37.99
2023-06-11T17:18:07.473Z,38.37
2023-06-11T17:20:40.963Z,38.61
2023-06-11T17:23:11.587Z,38.44
2023-06-11T17:25:38.484Z,39.33
2023-06-11T17:28:09.810Z,38.31
2023-06-11T17:30:41.294Z,38.21
2023-06-11T17:33:13.126Z,38.22
2023-06-11T17:35:44.718Z,38.23
2023-06-11T17:38:18.755Z,38.89
2023-06-11T17:40:50.620Z,38.68
2023-06-11T17:43:19.964Z,39.57
2023-06-11T17:45:50.113Z,39.04
2023-06-11T17:48:17.322Z,39.00
2023-06-11T17:50:50.857Z,38.45
2023-06-11T17:53:20.187Z,39.21
2023-06-11T17:55:50.772Z,39.16
2023-06-11T17:58:20.316Z,39.01
2023-06-11T18:00:47.134Z,39.11
2023-06-11T18:03:18.749Z,39.45
2023-06-11T18:05:48.113Z,39.16
2023-06-11T18:08:19.660Z,39.04
2023-06-11T18:10:48.991Z,39.43
2023-06-11T18:13:20.493Z,39.21
2023-06-11T18:15:52.168Z,39.47
2023-06-11T18:18:23.720Z,39.64
2023-06-11T18:20:52.976Z,39.57
2023-06-11T18:23:22.296Z,39.88
2023-06-11T18:25:51.983Z,39.77
2023-06-11T18:28:21.580Z,40.10
2023-06-11T18:30:50.666Z,39.82
2023-06-11T18:33:17.488Z,40.42
2023-06-11T18:35:49.935Z,40.74
2023-06-11T18:38:19.370Z,41.19
2023-06-11T18:40:53.776Z,41.07
2023-06-11T18:43:25.135Z,40.91
2023-06-11T18:45:52.069Z,41.33
2023-06-11T18:48:23.251Z,41.73
2023-06-11T18:50:52.501Z,41.58
2023-06-11T18:53:24.228Z,41.53
2023-06-11T18:55:51.154Z,42.07
2023-06-11T18:58:20.321Z,42.01
2023-06-11T19:00:56.858Z,42.07
2023-06-11T19:03:26.218Z,42.01
2023-06-11T19:05:53.172Z,42.54
2023-06-11T19:08:20.133Z,42.33
2023-06-11T19:10:48.700Z,42.69
2023-06-11T19:13:18.507Z,42.50
2023-06-11T19:15:47.986Z,42.80
2023-06-11T19:18:19.642Z,43.05
2023-06-11T19:20:49.165Z,42.87
2023-06-11T19:23:16.299Z,43.05
2023-06-11T19:25:47.887Z,43.44
2023-06-11T19:28:14.798Z,43.66
2023-06-11T19:30:41.721Z,43.68
2023-06-11T19:33:09.060Z,43.56
2023-06-11T19:35:40.572Z,43.50
2023-06-11T19:38:08.562Z,44.11
2023-06-11T19:40:37.642Z,43.94
2023-06-11T19:43:07.001Z,44.14
2023-06-11T19:45:36.314Z,44.25
2023-06-11T19:48:03.370Z,44.44
2023-06-11T19:50:31.800Z,44.64
2023-06-11T19:53:03.786Z,44.52
2023-06-11T19:55:35.229Z,45.06
2023-06-11T19:58:03.541Z,44.78
2023-06-11T20:00:30.490Z,45.10
2023-06-11T20:03:04.378Z,45.51
2023-06-11T20:05:36.236Z,45.43
2023-06-11T20:08:10.215Z,45.58
2023-06-11T20:10:40.600Z,45.73
2023-06-11T20:13:10.530Z,46.03
2023-06-11T20:15:37.347Z,45.98
2023-06-11T20:20:33.290Z,46.30
2023-06-11T20:23:02.373Z,46.29
2023-06-11T20:25:33.685Z,46.53
2023-06-11T20:28:05.242Z,46.71
2023-06-11T20:30:34.347Z,46.63
2023-06-11T20:33:01.408Z,46.97
2023-06-11T20:35:29.836Z,46.79
2023-06-11T20:38:01.616Z,47.28
2023-06-11T20:40:30.769Z,46.95
2023-06-11T20:43:05.161Z,47.25
2023-06-11T20:45:35.851Z,47.57
2023-06-11T20:48:05.218Z,47.71
2023-06-11T20:50:32.431Z,47.62
2023-06-11T20:52:59.349Z,47.87
2023-06-11T20:55:28.558Z,48.46
2023-06-11T20:57:55.448Z,48.45
2023-06-11T21:00:24.517Z,48.44
2023-06-11T21:02:55.439Z,48.71
2023-06-11T21:05:23.263Z,48.68
2023-06-11T21:07:57.310Z,49.21
2023-06-11T21:10:26.437Z,49.33
2023-06-11T21:13:00.379Z,49.41
2023-06-11T21:15:32.074Z,49.38
2023-06-11T21:18:04.062Z,49.20
2023-06-11T21:20:37.604Z,49.75
2023-06-11T21:23:06.750Z,49.58
2023-06-11T21:25:38.492Z,49.95
2023-06-11T21:28:10.211Z,50.16
2023-06-11T21:30:38.073Z,50.12
2023-06-11T21:33:07.223Z,50.41
2023-06-11T21:35:36.463Z,50.31
2023-06-11T21:38:08.183Z,50.69
2023-06-11T21:40:35.047Z,50.57
2023-06-11T21:43:09.542Z,50.76
2023-06-11T21:45:40.954Z,50.89
2023-06-11T21:48:10.862Z,51.23
2023-06-11T21:50:45.045Z,51.12
2023-06-11T21:53:14.939Z,51.43
2023-06-11T21:55:44.469Z,51.46
2023-06-11T21:58:11.414Z,51.60
2023-06-11T22:00:38.573Z,51.61
2023-06-11T22:03:07.476Z,51.77
2023-06-11T22:05:39.007Z,52.09
2023-06-11T22:08:14.697Z,51.95
2023-06-11T22:10:43.760Z,52.18
2023-06-11T22:13:19.582Z,52.35
2023-06-11T22:15:46.392Z,52.57
2023-06-11T22:18:17.713Z,52.94
2023-06-11T22:20:49.276Z,52.91
2023-06-11T22:23:16.153Z,52.91
2023-06-11T22:25:45.438Z,53.44
2023-06-11T22:28:16.901Z,53.56
2023-06-11T22:30:56.387Z,53.68
2023-06-11T22:33:26.192Z,53.76
2023-06-11T22:35:53.187Z,53.66
2023-06-11T22:38:27.741Z,54.03
2023-06-11T22:40:59.425Z,54.00
2023-06-11T22:43:28.758Z,54.11
2023-06-11T22:45:58.172Z,54.16
2023-06-11T22:48:25.157Z,54.67
2023-06-11T22:50:54.509Z,54.45
2023-06-11T22:53:22.832Z,54.33
2023-06-11T22:55:52.014Z,54.66
2023-06-11T22:58:21.372Z,54.70
2023-06-11T23:00:48.870Z,55.07
2023-06-11T23:03:20.443Z,54.93
2023-06-11T23:05:47.567Z,54.84
2023-06-11T23:08:16.542Z,55.06
2023-06-11T23:10:45.843Z,55.00
2023-06-11T23:13:15.174Z,55.25
2023-06-11T23:15:47.081Z,55.19
2023-06-11T23:18:14.210Z,55.34
2023-06-11T23:20:44.043Z,55.64
2023-06-11T23:23:11.001Z,55.58
2023-06-11T23:25:40.738Z,55.56
2023-06-11T23:28:13.733Z,55.70
2023-06-11T23:30:42.758Z,55.66
2023-06-11T23:33:12.945Z,55.80
2023-06-11T23:35:40.906Z,56.00
2023-06-11T23:38:08.161Z,56.06
2023-06-11T23:40:35.061Z,56.09
2023-06-11T23:43:04.150Z,56.16
2023-06-11T23:45:35.624Z,56.38
2023-06-11T23:48:04.775Z,56.55
2023-06-11T23:50:31.729Z,56.80
2023-06-11T23:52:59.063Z,56.93
2023-06-11T23:55:28.514Z,57.07
2023-06-11T23:58:16.820Z,57.53
